Santa Paula, CA

11:02 PM PDT on August 20, 2014 (GMT -0700)
Newhall | Change Station
CLOSE
Current Station
Airport
Location: Newhall,
Elevation: 984 ft
Nearby Weather Stations

Elev 984 ft 34.37 °N, 118.57 °W | Updated 1079 days ago

Fog
Fog
61 °F
Feels Like 61 °F
N
0
Wind Variable Wind from ENE
Gusts mph

Today
High -- | Low -- °F
--% Chance of Precip.
Yesterday
High -- | Low -- °F
Precip. -- in
6:21 AM 7:37 PM
Waning Crescent, 16% visible
Pressure 29.91 in
Visibility -9999.0 miles
Clouds
Dew Point 59 °F
Humidity 90%
Rainfall 0.00 in
Snow Depth Not available.
UV Not available.
Pollen 7.80 out of 12
Ozone Good
PM2.5 Good
Flu Activity Not available.
METAR K3A6 050630Z AUTO 20001KT 23/09 A2992 RMK AO1 SLP127 T02280095 403840165

More Conditions Fewer Conditions

Pressure 29.91 in
Visibility -9999.0 miles
Clouds
Dew Point 59 °F
Humidity 90%
Rainfall 0.00 in
Snow Depth Not available.
UV Not available.
Pollen 7.80 out of 12
Ozone Good
PM2.5 Good
Flu Activity Not available.
METAR K3A6 050630Z AUTO 20001KT 23/09 A2992 RMK AO1 SLP127 T02280095 403840165

More Conditions Fewer Conditions

10-Day Weather Forecast

Almanac

Astronomy

Aug. 20, 2014 Rise Set
Actual Time 6:21 AM PDT 7:37 PM PDT
Civil Twilight 5:54 AM PDT 8:03 PM PDT
Nautical Twilight 5:23 AM PDT 8:35 PM PDT
Astronomical Twilight 4:50 AM PDT 9:07 PM PDT
Moon 2:09 AM PDT (8/20) 4:21 PM PDT (8/20)
Length of Visible Light 14h 09m
Length of Day
13h 16m
Tomorrow will be 1m 57s shorter.
Waning Crescent, 16% of the Moon is Illuminated
Aug 21
Waning Crescent
Aug 25
New
Sep 2
First Quarter
Sep 8
Full
Sep 15
Last Quarter

Yesterday's Extremes

State Highs State Lows

Community

WunderPhotos

Upload Photos

1,745,858 photos uploaded!

Nearby

Air Quality

  Air Quality AQ Index Pollutant
Yesterday Good
PM2.5
Yesterday Good
OZONE
Current Good
PM2.5
Current Good
OZONE
Wednesday Good
OZONE
Wednesday Good
PM2.5
Thursday Good
OZONE
Thursday Good
PM2.5
Friday Good
OZONE
Friday Good
PM2.5
Saturday Good
OZONE
Saturday Good
PM2.5
Sunday Good
OZONE
Sunday Good
PM2.5
Monday Good
OZONE
Monday Good
PM2.5

Snow Depth

Station Depth Elevation
Leavitt Lake 1 in 9400 ft
Leavitt Meadows 1 in 7200 ft
Summit Meadow 0 in 9122 ft
Monitor Pass 0 in 8350 ft
Forestdale Creek 0 in 8029 ft

Earthquake Activity

City Distance Mag. Time & Date
King City, California 168 miles 2.7 10:26 PM PDT
2014-08-15
Malibu Beach, California 34 miles 3.4 10:03 AM PDT
2014-08-15
Kettleman City, California 128 miles 2.9 11:32 PM PDT
2014-08-14
King City, California 168 miles 2.9 8:01 PM PDT
2014-08-14
Minimum magnitude displayed is 2.5.

Coastal Water Temperatures

Place Temperature
Santa Monica Pier 71.1 °F
Los Angeles, CA 66.9 °F
Port San Luis, CA 57.9 °F

Nearby Weather Stations